sensor_id;sensor_type;location;lat;lon;timestamp;P1;durP1;ratioP1;P2;durP2;ratioP2
15629;SDS011;7914;50.842;0.166;2022-10-22T00:02:11;18.17;;;17.37;;
15629;SDS011;7914;50.842;0.166;2022-10-22T00:04:40;18.03;;;17.23;;
15629;SDS011;7914;50.842;0.166;2022-10-22T00:07:06;17.70;;;16.90;;
15629;SDS011;7914;50.842;0.166;2022-10-22T00:09:31;17.07;;;16.27;;
15629;SDS011;7914;50.842;0.166;2022-10-22T00:11:57;15.37;;;14.67;;
15629;SDS011;7914;50.842;0.166;2022-10-22T00:14:23;14.60;;;14.00;;
15629;SDS011;7914;50.842;0.166;2022-10-22T00:16:49;15.10;;;14.40;;
15629;SDS011;7914;50.842;0.166;2022-10-22T00:19:14;14.30;;;13.70;;
15629;SDS011;7914;50.842;0.166;2022-10-22T00:21:40;13.53;;;12.93;;
15629;SDS011;7914;50.842;0.166;2022-10-22T00:24:06;13.77;;;13.17;;
15629;SDS011;7914;50.842;0.166;2022-10-22T00:26:32;12.80;;;12.30;;
15629;SDS011;7914;50.842;0.166;2022-10-22T00:28:57;12.57;;;12.07;;
15629;SDS011;7914;50.842;0.166;2022-10-22T00:31:23;12.40;;;11.90;;
15629;SDS011;7914;50.842;0.166;2022-10-22T00:33:49;12.60;;;12.10;;
15629;SDS011;7914;50.842;0.166;2022-10-22T00:36:14;11.87;;;11.37;;
15629;SDS011;7914;50.842;0.166;2022-10-22T00:38:40;11.67;;;11.17;;
15629;SDS011;7914;50.842;0.166;2022-10-22T00:41:06;11.90;;;11.40;;
15629;SDS011;7914;50.842;0.166;2022-10-22T00:43:33;12.23;;;11.73;;
15629;SDS011;7914;50.842;0.166;2022-10-22T00:45:58;12.40;;;11.90;;
15629;SDS011;7914;50.842;0.166;2022-10-22T00:48:24;11.77;;;11.27;;
15629;SDS011;7914;50.842;0.166;2022-10-22T00:51:00;11.83;;;11.33;;
15629;SDS011;7914;50.842;0.166;2022-10-22T00:53:31;12.30;;;11.80;;
15629;SDS011;7914;50.842;0.166;2022-10-22T00:56:01;12.57;;;12.07;;
15629;SDS011;7914;50.842;0.166;2022-10-22T00:58:28;12.00;;;11.50;;
15629;SDS011;7914;50.842;0.166;2022-10-22T01:00:57;11.30;;;10.80;;
15629;SDS011;7914;50.842;0.166;2022-10-22T01:03:23;10.93;;;10.47;;
15629;SDS011;7914;50.842;0.166;2022-10-22T01:05:56;10.63;;;10.23;;
15629;SDS011;7914;50.842;0.166;2022-10-22T01:21:33;10.23;;;9.83;;
15629;SDS011;7914;50.842;0.166;2022-10-22T01:29:26;9.03;;;8.63;;
15629;SDS011;7914;50.842;0.166;2022-10-22T01:32:09;8.83;;;8.43;;
15629;SDS011;7914;50.842;0.166;2022-10-22T01:34:39;8.23;;;7.93;;
15629;SDS011;7914;50.842;0.166;2022-10-22T01:37:07;7.73;;;7.43;;
15629;SDS011;7914;50.842;0.166;2022-10-22T01:39:34;7.67;;;7.37;;
15629;SDS011;7914;50.842;0.166;2022-10-22T01:42:02;7.30;;;7.00;;
15629;SDS011;7914;50.842;0.166;2022-10-22T01:44:32;6.70;;;6.40;;
15629;SDS011;7914;50.842;0.166;2022-10-22T01:47:06;6.33;;;6.13;;
15629;SDS011;7914;50.842;0.166;2022-10-22T01:52:34;6.23;;;6.03;;
15629;SDS011;7914;50.842;0.166;2022-10-22T02:00:17;5.50;;;5.30;;
15629;SDS011;7914;50.842;0.166;2022-10-22T02:03:01;5.60;;;5.40;;
15629;SDS011;7914;50.842;0.166;2022-10-22T02:08:22;5.50;;;5.30;;
15629;SDS011;7914;50.842;0.166;2022-10-22T02:10:51;5.40;;;5.20;;
15629;SDS011;7914;50.842;0.166;2022-10-22T02:13:25;5.30;;;5.10;;
15629;SDS011;7914;50.842;0.166;2022-10-22T02:15:54;4.80;;;4.60;;
15629;SDS011;7914;50.842;0.166;2022-10-22T02:18:23;4.83;;;4.63;;
15629;SDS011;7914;50.842;0.166;2022-10-22T02:20:53;4.80;;;4.60;;
15629;SDS011;7914;50.842;0.166;2022-10-22T02:23:20;4.87;;;4.67;;
15629;SDS011;7914;50.842;0.166;2022-10-22T02:25:47;4.60;;;4.40;;
15629;SDS011;7914;50.842;0.166;2022-10-22T02:28:20;4.53;;;4.33;;
15629;SDS011;7914;50.842;0.166;2022-10-22T02:30:59;4.30;;;4.10;;
15629;SDS011;7914;50.842;0.166;2022-10-22T02:33:30;4.00;;;3.90;;
15629;SDS011;7914;50.842;0.166;2022-10-22T02:36:01;4.13;;;4.03;;
15629;SDS011;7914;50.842;0.166;2022-10-22T02:38:27;4.10;;;4.00;;
15629;SDS011;7914;50.842;0.166;2022-10-22T02:40:54;3.93;;;3.83;;
15629;SDS011;7914;50.842;0.166;2022-10-22T02:43:20;3.70;;;3.60;;
15629;SDS011;7914;50.842;0.166;2022-10-22T02:45:49;3.90;;;3.80;;
15629;SDS011;7914;50.842;0.166;2022-10-22T02:48:15;3.70;;;3.60;;
15629;SDS011;7914;50.842;0.166;2022-10-22T02:50:41;3.90;;;3.80;;
15629;SDS011;7914;50.842;0.166;2022-10-22T02:53:07;3.80;;;3.70;;
15629;SDS011;7914;50.842;0.166;2022-10-22T02:55:32;3.73;;;3.63;;
15629;SDS011;7914;50.842;0.166;2022-10-22T02:57:58;3.80;;;3.70;;
15629;SDS011;7914;50.842;0.166;2022-10-22T03:00:24;4.00;;;3.90;;
15629;SDS011;7914;50.842;0.166;2022-10-22T03:02:49;4.00;;;3.90;;
15629;SDS011;7914;50.842;0.166;2022-10-22T03:05:15;3.97;;;3.87;;
15629;SDS011;7914;50.842;0.166;2022-10-22T03:07:40;4.70;;;4.50;;
15629;SDS011;7914;50.842;0.166;2022-10-22T03:10:06;5.47;;;5.27;;
15629;SDS011;7914;50.842;0.166;2022-10-22T03:12:32;5.53;;;5.33;;
15629;SDS011;7914;50.842;0.166;2022-10-22T03:14:58;5.50;;;5.30;;
15629;SDS011;7914;50.842;0.166;2022-10-22T03:17:24;5.50;;;5.30;;
15629;SDS011;7914;50.842;0.166;2022-10-22T03:19:49;5.00;;;4.80;;
15629;SDS011;7914;50.842;0.166;2022-10-22T03:22:20;5.10;;;4.90;;
15629;SDS011;7914;50.842;0.166;2022-10-22T03:24:49;4.83;;;4.63;;
15629;SDS011;7914;50.842;0.166;2022-10-22T03:27:19;5.10;;;4.90;;
15629;SDS011;7914;50.842;0.166;2022-10-22T03:29:46;4.90;;;4.70;;
15629;SDS011;7914;50.842;0.166;2022-10-22T03:32:15;4.87;;;4.67;;
15629;SDS011;7914;50.842;0.166;2022-10-22T03:34:40;5.10;;;4.90;;
15629;SDS011;7914;50.842;0.166;2022-10-22T03:37:06;4.60;;;4.40;;
15629;SDS011;7914;50.842;0.166;2022-10-22T03:39:32;4.73;;;4.53;;
15629;SDS011;7914;50.842;0.166;2022-10-22T03:42:00;4.80;;;4.60;;
15629;SDS011;7914;50.842;0.166;2022-10-22T03:44:26;4.60;;;4.40;;
15629;SDS011;7914;50.842;0.166;2022-10-22T03:46:53;4.43;;;4.23;;
15629;SDS011;7914;50.842;0.166;2022-10-22T03:49:19;4.40;;;4.20;;
15629;SDS011;7914;50.842;0.166;2022-10-22T03:51:44;4.37;;;4.17;;
15629;SDS011;7914;50.842;0.166;2022-10-22T03:54:10;3.70;;;3.60;;
15629;SDS011;7914;50.842;0.166;2022-10-22T03:56:36;3.77;;;3.67;;
15629;SDS011;7914;50.842;0.166;2022-10-22T03:59:02;3.70;;;3.60;;
15629;SDS011;7914;50.842;0.166;2022-10-22T04:01:28;3.47;;;3.37;;
15629;SDS011;7914;50.842;0.166;2022-10-22T04:03:54;3.30;;;3.20;;
15629;SDS011;7914;50.842;0.166;2022-10-22T04:06:21;3.30;;;3.20;;
15629;SDS011;7914;50.842;0.166;2022-10-22T04:08:47;3.20;;;3.10;;
15629;SDS011;7914;50.842;0.166;2022-10-22T04:11:13;3.20;;;3.10;;
15629;SDS011;7914;50.842;0.166;2022-10-22T04:13:39;3.30;;;3.20;;
15629;SDS011;7914;50.842;0.166;2022-10-22T04:16:09;3.10;;;3.00;;
15629;SDS011;7914;50.842;0.166;2022-10-22T04:18:35;3.10;;;3.00;;
15629;SDS011;7914;50.842;0.166;2022-10-22T04:21:01;2.90;;;2.80;;
15629;SDS011;7914;50.842;0.166;2022-10-22T04:23:28;3.20;;;3.10;;
15629;SDS011;7914;50.842;0.166;2022-10-22T04:25:57;2.90;;;2.80;;
15629;SDS011;7914;50.842;0.166;2022-10-22T04:28:23;2.80;;;2.70;;
15629;SDS011;7914;50.842;0.166;2022-10-22T04:30:49;2.70;;;2.60;;
15629;SDS011;7914;50.842;0.166;2022-10-22T04:33:15;2.60;;;2.50;;
15629;SDS011;7914;50.842;0.166;2022-10-22T04:35:41;2.77;;;2.67;;
15629;SDS011;7914;50.842;0.166;2022-10-22T04:38:06;2.90;;;2.80;;
15629;SDS011;7914;50.842;0.166;2022-10-22T04:40:32;2.90;;;2.80;;
15629;SDS011;7914;50.842;0.166;2022-10-22T04:42:57;2.90;;;2.80;;
15629;SDS011;7914;50.842;0.166;2022-10-22T04:45:23;2.80;;;2.70;;
15629;SDS011;7914;50.842;0.166;2022-10-22T04:47:49;2.90;;;2.80;;
15629;SDS011;7914;50.842;0.166;2022-10-22T04:50:14;3.10;;;3.00;;
15629;SDS011;7914;50.842;0.166;2022-10-22T04:52:40;2.90;;;2.80;;
15629;SDS011;7914;50.842;0.166;2022-10-22T04:55:06;2.70;;;2.60;;
15629;SDS011;7914;50.842;0.166;2022-10-22T04:57:32;2.63;;;2.53;;
15629;SDS011;7914;50.842;0.166;2022-10-22T04:59:57;2.77;;;2.67;;
15629;SDS011;7914;50.842;0.166;2022-10-22T05:02:23;2.60;;;2.50;;
15629;SDS011;7914;50.842;0.166;2022-10-22T05:04:49;2.60;;;2.50;;
15629;SDS011;7914;50.842;0.166;2022-10-22T05:07:14;2.70;;;2.60;;
15629;SDS011;7914;50.842;0.166;2022-10-22T05:09:40;2.70;;;2.60;;
15629;SDS011;7914;50.842;0.166;2022-10-22T05:12:06;2.60;;;2.50;;
15629;SDS011;7914;50.842;0.166;2022-10-22T05:14:32;2.57;;;2.47;;
15629;SDS011;7914;50.842;0.166;2022-10-22T05:16:57;2.60;;;2.50;;
15629;SDS011;7914;50.842;0.166;2022-10-22T05:19:24;2.50;;;2.40;;
15629;SDS011;7914;50.842;0.166;2022-10-22T05:21:52;2.80;;;2.70;;
15629;SDS011;7914;50.842;0.166;2022-10-22T05:24:20;2.50;;;2.40;;
15629;SDS011;7914;50.842;0.166;2022-10-22T05:26:49;2.50;;;2.40;;
15629;SDS011;7914;50.842;0.166;2022-10-22T05:29:16;2.40;;;2.30;;
15629;SDS011;7914;50.842;0.166;2022-10-22T05:31:42;2.40;;;2.30;;
15629;SDS011;7914;50.842;0.166;2022-10-22T05:34:07;2.63;;;2.53;;
15629;SDS011;7914;50.842;0.166;2022-10-22T05:36:33;2.57;;;2.47;;
15629;SDS011;7914;50.842;0.166;2022-10-22T05:38:59;2.33;;;2.23;;
15629;SDS011;7914;50.842;0.166;2022-10-22T05:41:25;2.60;;;2.50;;
15629;SDS011;7914;50.842;0.166;2022-10-22T05:43:55;2.40;;;2.30;;
15629;SDS011;7914;50.842;0.166;2022-10-22T05:46:23;2.30;;;2.20;;
15629;SDS011;7914;50.842;0.166;2022-10-22T05:48:51;2.10;;;2.00;;
15629;SDS011;7914;50.842;0.166;2022-10-22T05:51:18;2.23;;;2.13;;
15629;SDS011;7914;50.842;0.166;2022-10-22T05:53:44;2.20;;;2.10;;
15629;SDS011;7914;50.842;0.166;2022-10-22T05:56:14;2.40;;;2.30;;
15629;SDS011;7914;50.842;0.166;2022-10-22T05:58:40;2.30;;;2.20;;
15629;SDS011;7914;50.842;0.166;2022-10-22T06:01:12;2.40;;;2.30;;
15629;SDS011;7914;50.842;0.166;2022-10-22T06:03:40;2.43;;;2.33;;
15629;SDS011;7914;50.842;0.166;2022-10-22T06:06:11;2.30;;;2.20;;
15629;SDS011;7914;50.842;0.166;2022-10-22T06:08:47;2.20;;;2.10;;
15629;SDS011;7914;50.842;0.166;2022-10-22T06:11:15;2.17;;;2.07;;
15629;SDS011;7914;50.842;0.166;2022-10-22T06:13:42;2.20;;;2.10;;
15629;SDS011;7914;50.842;0.166;2022-10-22T06:16:09;2.30;;;2.20;;
15629;SDS011;7914;50.842;0.166;2022-10-22T06:18:35;2.40;;;2.30;;
15629;SDS011;7914;50.842;0.166;2022-10-22T06:21:04;2.13;;;2.03;;
15629;SDS011;7914;50.842;0.166;2022-10-22T06:23:40;2.40;;;2.30;;
15629;SDS011;7914;50.842;0.166;2022-10-22T06:26:06;2.17;;;2.07;;
15629;SDS011;7914;50.842;0.166;2022-10-22T06:28:33;2.30;;;2.20;;
15629;SDS011;7914;50.842;0.166;2022-10-22T06:31:00;2.50;;;2.40;;
15629;SDS011;7914;50.842;0.166;2022-10-22T06:33:27;2.30;;;2.20;;
15629;SDS011;7914;50.842;0.166;2022-10-22T06:35:53;2.20;;;2.10;;
15629;SDS011;7914;50.842;0.166;2022-10-22T06:38:19;2.30;;;2.20;;
15629;SDS011;7914;50.842;0.166;2022-10-22T06:40:45;2.17;;;2.07;;
15629;SDS011;7914;50.842;0.166;2022-10-22T06:43:11;2.33;;;2.23;;
15629;SDS011;7914;50.842;0.166;2022-10-22T06:45:38;2.20;;;2.10;;
15629;SDS011;7914;50.842;0.166;2022-10-22T06:48:03;2.10;;;2.00;;
15629;SDS011;7914;50.842;0.166;2022-10-22T06:50:30;1.80;;;1.80;;
15629;SDS011;7914;50.842;0.166;2022-10-22T06:52:56;2.30;;;2.20;;
15629;SDS011;7914;50.842;0.166;2022-10-22T06:55:22;2.13;;;2.03;;
15629;SDS011;7914;50.842;0.166;2022-10-22T06:57:47;2.20;;;2.10;;
15629;SDS011;7914;50.842;0.166;2022-10-22T07:00:13;2.20;;;2.10;;
15629;SDS011;7914;50.842;0.166;2022-10-22T07:02:39;2.20;;;2.10;;
15629;SDS011;7914;50.842;0.166;2022-10-22T07:05:05;2.10;;;2.00;;
15629;SDS011;7914;50.842;0.166;2022-10-22T07:07:31;2.10;;;2.00;;
15629;SDS011;7914;50.842;0.166;2022-10-22T07:09:56;2.23;;;2.13;;
15629;SDS011;7914;50.842;0.166;2022-10-22T07:12:22;2.10;;;2.00;;
15629;SDS011;7914;50.842;0.166;2022-10-22T07:14:48;2.10;;;2.00;;
15629;SDS011;7914;50.842;0.166;2022-10-22T07:17:14;2.03;;;1.93;;
15629;SDS011;7914;50.842;0.166;2022-10-22T07:19:40;2.20;;;2.10;;
15629;SDS011;7914;50.842;0.166;2022-10-22T07:22:05;2.10;;;2.00;;
15629;SDS011;7914;50.842;0.166;2022-10-22T07:24:31;2.20;;;2.10;;
15629;SDS011;7914;50.842;0.166;2022-10-22T07:26:57;2.23;;;2.13;;
15629;SDS011;7914;50.842;0.166;2022-10-22T07:29:22;1.90;;;1.90;;
15629;SDS011;7914;50.842;0.166;2022-10-22T07:31:48;2.07;;;1.97;;
15629;SDS011;7914;50.842;0.166;2022-10-22T07:34:14;2.10;;;2.00;;
15629;SDS011;7914;50.842;0.166;2022-10-22T07:36:39;2.10;;;2.00;;
15629;SDS011;7914;50.842;0.166;2022-10-22T07:39:05;1.97;;;1.90;;
15629;SDS011;7914;50.842;0.166;2022-10-22T07:41:31;1.90;;;1.90;;
15629;SDS011;7914;50.842;0.166;2022-10-22T07:43:57;1.80;;;1.80;;
15629;SDS011;7914;50.842;0.166;2022-10-22T07:46:23;1.80;;;1.80;;
15629;SDS011;7914;50.842;0.166;2022-10-22T07:48:49;1.90;;;1.90;;
15629;SDS011;7914;50.842;0.166;2022-10-22T07:51:15;2.20;;;2.10;;
15629;SDS011;7914;50.842;0.166;2022-10-22T07:53:41;2.00;;;1.90;;
15629;SDS011;7914;50.842;0.166;2022-10-22T07:56:07;1.80;;;1.80;;
15629;SDS011;7914;50.842;0.166;2022-10-22T07:58:33;1.60;;;1.60;;
15629;SDS011;7914;50.842;0.166;2022-10-22T08:00:59;1.80;;;1.80;;
15629;SDS011;7914;50.842;0.166;2022-10-22T08:03:26;2.00;;;1.90;;
15629;SDS011;7914;50.842;0.166;2022-10-22T08:05:53;1.60;;;1.60;;
15629;SDS011;7914;50.842;0.166;2022-10-22T08:08:19;1.67;;;1.67;;
15629;SDS011;7914;50.842;0.166;2022-10-22T08:10:46;1.40;;;1.40;;
15629;SDS011;7914;50.842;0.166;2022-10-22T08:13:13;1.40;;;1.40;;
15629;SDS011;7914;50.842;0.166;2022-10-22T08:15:39;1.40;;;1.40;;
15629;SDS011;7914;50.842;0.166;2022-10-22T08:18:07;1.30;;;1.30;;
15629;SDS011;7914;50.842;0.166;2022-10-22T08:20:33;1.23;;;1.23;;
15629;SDS011;7914;50.842;0.166;2022-10-22T08:22:58;1.20;;;1.20;;
15629;SDS011;7914;50.842;0.166;2022-10-22T08:25:24;1.20;;;1.20;;
15629;SDS011;7914;50.842;0.166;2022-10-22T08:27:50;1.17;;;1.17;;
15629;SDS011;7914;50.842;0.166;2022-10-22T08:30:16;1.10;;;1.10;;
15629;SDS011;7914;50.842;0.166;2022-10-22T08:32:42;1.13;;;1.13;;
15629;SDS011;7914;50.842;0.166;2022-10-22T08:35:08;1.00;;;1.00;;
15629;SDS011;7914;50.842;0.166;2022-10-22T08:37:34;1.20;;;1.20;;
15629;SDS011;7914;50.842;0.166;2022-10-22T08:40:00;1.10;;;1.10;;
15629;SDS011;7914;50.842;0.166;2022-10-22T08:45:09;1.20;;;1.20;;
15629;SDS011;7914;50.842;0.166;2022-10-22T08:47:48;1.20;;;1.20;;
15629;SDS011;7914;50.842;0.166;2022-10-22T08:50:18;1.27;;;1.27;;
15629;SDS011;7914;50.842;0.166;2022-10-22T08:52:51;1.20;;;1.20;;
15629;SDS011;7914;50.842;0.166;2022-10-22T08:55:22;1.40;;;1.40;;
15629;SDS011;7914;50.842;0.166;2022-10-22T08:58:00;1.40;;;1.40;;
15629;SDS011;7914;50.842;0.166;2022-10-22T09:00:51;1.40;;;1.40;;
15629;SDS011;7914;50.842;0.166;2022-10-22T09:03:51;1.53;;;1.53;;
15629;SDS011;7914;50.842;0.166;2022-10-22T09:06:28;1.50;;;1.50;;
15629;SDS011;7914;50.842;0.166;2022-10-22T09:08:56;1.40;;;1.40;;
15629;SDS011;7914;50.842;0.166;2022-10-22T09:13:57;1.23;;;1.23;;
15629;SDS011;7914;50.842;0.166;2022-10-22T09:26:52;1.10;;;1.10;;
15629;SDS011;7914;50.842;0.166;2022-10-22T09:29:21;1.23;;;1.23;;
15629;SDS011;7914;50.842;0.166;2022-10-22T09:31:53;1.10;;;1.10;;
15629;SDS011;7914;50.842;0.166;2022-10-22T09:34:19;1.10;;;1.10;;
15629;SDS011;7914;50.842;0.166;2022-10-22T09:36:45;1.20;;;1.20;;
15629;SDS011;7914;50.842;0.166;2022-10-22T09:39:25;1.10;;;1.10;;
15629;SDS011;7914;50.842;0.166;2022-10-22T09:41:52;1.00;;;1.00;;
15629;SDS011;7914;50.842;0.166;2022-10-22T09:44:19;1.00;;;1.00;;
15629;SDS011;7914;50.842;0.166;2022-10-22T09:46:45;1.20;;;1.20;;
15629;SDS011;7914;50.842;0.166;2022-10-22T09:49:15;1.10;;;1.10;;
15629;SDS011;7914;50.842;0.166;2022-10-22T09:51:55;1.10;;;1.10;;
15629;SDS011;7914;50.842;0.166;2022-10-22T09:54:23;1.10;;;1.10;;
15629;SDS011;7914;50.842;0.166;2022-10-22T09:56:56;1.20;;;1.20;;
15629;SDS011;7914;50.842;0.166;2022-10-22T09:59:38;1.20;;;1.20;;
15629;SDS011;7914;50.842;0.166;2022-10-22T10:02:16;1.20;;;1.20;;
15629;SDS011;7914;50.842;0.166;2022-10-22T10:04:45;1.10;;;1.10;;
15629;SDS011;7914;50.842;0.166;2022-10-22T10:07:21;1.10;;;1.10;;
15629;SDS011;7914;50.842;0.166;2022-10-22T10:09:48;1.00;;;1.00;;
15629;SDS011;7914;50.842;0.166;2022-10-22T10:12:18;1.10;;;1.10;;
15629;SDS011;7914;50.842;0.166;2022-10-22T10:17:29;1.10;;;1.10;;
15629;SDS011;7914;50.842;0.166;2022-10-22T10:28:16;1.00;;;1.00;;
15629;SDS011;7914;50.842;0.166;2022-10-22T10:37:10;1.00;;;1.00;;
15629;SDS011;7914;50.842;0.166;2022-10-22T10:42:40;1.00;;;1.00;;
15629;SDS011;7914;50.842;0.166;2022-10-22T10:55:34;1.10;;;1.10;;
15629;SDS011;7914;50.842;0.166;2022-10-22T10:58:22;1.07;;;1.07;;
15629;SDS011;7914;50.842;0.166;2022-10-22T11:01:07;1.00;;;1.00;;
15629;SDS011;7914;50.842;0.166;2022-10-22T11:06:21;0.90;;;0.90;;
15629;SDS011;7914;50.842;0.166;2022-10-22T11:08:50;0.80;;;0.80;;
15629;SDS011;7914;50.842;0.166;2022-10-22T11:11:28;0.90;;;0.90;;
15629;SDS011;7914;50.842;0.166;2022-10-22T11:14:10;0.90;;;0.90;;
15629;SDS011;7914;50.842;0.166;2022-10-22T11:16:48;1.00;;;1.00;;
15629;SDS011;7914;50.842;0.166;2022-10-22T11:19:29;0.80;;;0.80;;
15629;SDS011;7914;50.842;0.166;2022-10-22T11:22:17;0.90;;;0.90;;
15629;SDS011;7914;50.842;0.166;2022-10-22T11:27:24;0.90;;;0.90;;
15629;SDS011;7914;50.842;0.166;2022-10-22T11:30:10;0.90;;;0.90;;
15629;SDS011;7914;50.842;0.166;2022-10-22T11:32:41;0.90;;;0.90;;
15629;SDS011;7914;50.842;0.166;2022-10-22T11:35:11;0.80;;;0.80;;
15629;SDS011;7914;50.842;0.166;2022-10-22T11:37:44;0.90;;;0.90;;
15629;SDS011;7914;50.842;0.166;2022-10-22T11:48:04;0.90;;;0.90;;
15629;SDS011;7914;50.842;0.166;2022-10-22T11:55:50;1.00;;;1.00;;
15629;SDS011;7914;50.842;0.166;2022-10-22T12:00:51;0.80;;;0.80;;
15629;SDS011;7914;50.842;0.166;2022-10-22T12:03:22;0.80;;;0.80;;
15629;SDS011;7914;50.842;0.166;2022-10-22T12:06:40;0.90;;;0.90;;
15629;SDS011;7914;50.842;0.166;2022-10-22T12:11:13;0.80;;;0.80;;
15629;SDS011;7914;50.842;0.166;2022-10-22T12:16:35;0.90;;;0.90;;
15629;SDS011;7914;50.842;0.166;2022-10-22T12:19:06;0.80;;;0.80;;
15629;SDS011;7914;50.842;0.166;2022-10-22T12:21:38;0.90;;;0.90;;
15629;SDS011;7914;50.842;0.166;2022-10-22T12:24:05;0.90;;;0.90;;
15629;SDS011;7914;50.842;0.166;2022-10-22T12:26:35;0.93;;;0.93;;
15629;SDS011;7914;50.842;0.166;2022-10-22T12:29:02;0.90;;;0.90;;
15629;SDS011;7914;50.842;0.166;2022-10-22T12:31:35;1.03;;;1.03;;
15629;SDS011;7914;50.842;0.166;2022-10-22T12:34:03;0.90;;;0.90;;
15629;SDS011;7914;50.842;0.166;2022-10-22T12:36:29;0.90;;;0.90;;
15629;SDS011;7914;50.842;0.166;2022-10-22T12:39:08;0.90;;;0.90;;
15629;SDS011;7914;50.842;0.166;2022-10-22T12:41:40;0.90;;;0.90;;
15629;SDS011;7914;50.842;0.166;2022-10-22T12:44:09;1.07;;;1.07;;
15629;SDS011;7914;50.842;0.166;2022-10-22T12:46:37;0.90;;;0.90;;
15629;SDS011;7914;50.842;0.166;2022-10-22T12:49:10;0.90;;;0.90;;
15629;SDS011;7914;50.842;0.166;2022-10-22T12:51:39;0.90;;;0.90;;
15629;SDS011;7914;50.842;0.166;2022-10-22T12:54:06;0.80;;;0.80;;
15629;SDS011;7914;50.842;0.166;2022-10-22T12:56:34;0.90;;;0.90;;
15629;SDS011;7914;50.842;0.166;2022-10-22T12:59:06;0.90;;;0.90;;
15629;SDS011;7914;50.842;0.166;2022-10-22T13:01:43;0.97;;;0.97;;
15629;SDS011;7914;50.842;0.166;2022-10-22T13:09:40;0.90;;;0.90;;
15629;SDS011;7914;50.842;0.166;2022-10-22T13:12:35;1.00;;;1.00;;
15629;SDS011;7914;50.842;0.166;2022-10-22T13:17:47;1.20;;;1.20;;
15629;SDS011;7914;50.842;0.166;2022-10-22T13:20:20;1.00;;;1.00;;
15629;SDS011;7914;50.842;0.166;2022-10-22T13:22:57;0.90;;;0.90;;
15629;SDS011;7914;50.842;0.166;2022-10-22T13:25:34;1.00;;;1.00;;
15629;SDS011;7914;50.842;0.166;2022-10-22T13:28:14;0.90;;;0.90;;
15629;SDS011;7914;50.842;0.166;2022-10-22T13:33:22;1.00;;;1.00;;
15629;SDS011;7914;50.842;0.166;2022-10-22T13:35:54;1.10;;;1.10;;
15629;SDS011;7914;50.842;0.166;2022-10-22T13:38:21;1.10;;;1.10;;
15629;SDS011;7914;50.842;0.166;2022-10-22T13:40:49;0.90;;;0.90;;
15629;SDS011;7914;50.842;0.166;2022-10-22T13:43:15;0.97;;;0.97;;
15629;SDS011;7914;50.842;0.166;2022-10-22T13:45:42;1.00;;;1.00;;
15629;SDS011;7914;50.842;0.166;2022-10-22T13:48:11;1.00;;;1.00;;
15629;SDS011;7914;50.842;0.166;2022-10-22T13:50:39;1.00;;;1.00;;
15629;SDS011;7914;50.842;0.166;2022-10-22T13:53:05;1.00;;;1.00;;
15629;SDS011;7914;50.842;0.166;2022-10-22T13:55:34;1.00;;;1.00;;
15629;SDS011;7914;50.842;0.166;2022-10-22T13:58:03;1.00;;;1.00;;
15629;SDS011;7914;50.842;0.166;2022-10-22T14:00:35;0.90;;;0.90;;
15629;SDS011;7914;50.842;0.166;2022-10-22T14:03:03;1.10;;;1.10;;
15629;SDS011;7914;50.842;0.166;2022-10-22T14:05:30;1.20;;;1.20;;
15629;SDS011;7914;50.842;0.166;2022-10-22T14:08:00;0.90;;;0.90;;
15629;SDS011;7914;50.842;0.166;2022-10-22T14:10:26;1.10;;;1.10;;
15629;SDS011;7914;50.842;0.166;2022-10-22T14:12:52;1.00;;;1.00;;
15629;SDS011;7914;50.842;0.166;2022-10-22T14:15:19;1.20;;;1.20;;
15629;SDS011;7914;50.842;0.166;2022-10-22T14:17:48;1.20;;;1.20;;
15629;SDS011;7914;50.842;0.166;2022-10-22T14:20:23;1.30;;;1.30;;
15629;SDS011;7914;50.842;0.166;2022-10-22T14:22:50;1.20;;;1.20;;
15629;SDS011;7914;50.842;0.166;2022-10-22T14:25:17;1.30;;;1.30;;
15629;SDS011;7914;50.842;0.166;2022-10-22T14:27:44;1.30;;;1.30;;
15629;SDS011;7914;50.842;0.166;2022-10-22T14:30:14;1.20;;;1.20;;
15629;SDS011;7914;50.842;0.166;2022-10-22T14:32:42;1.50;;;1.50;;
15629;SDS011;7914;50.842;0.166;2022-10-22T14:35:10;1.50;;;1.50;;
15629;SDS011;7914;50.842;0.166;2022-10-22T14:37:37;1.60;;;1.60;;
15629;SDS011;7914;50.842;0.166;2022-10-22T14:40:03;1.33;;;1.33;;
15629;SDS011;7914;50.842;0.166;2022-10-22T14:42:29;1.50;;;1.50;;
15629;SDS011;7914;50.842;0.166;2022-10-22T14:45:04;1.60;;;1.60;;
15629;SDS011;7914;50.842;0.166;2022-10-22T14:47:30;1.60;;;1.60;;
15629;SDS011;7914;50.842;0.166;2022-10-22T14:49:56;1.70;;;1.70;;
15629;SDS011;7914;50.842;0.166;2022-10-22T14:52:22;1.80;;;1.80;;
15629;SDS011;7914;50.842;0.166;2022-10-22T14:54:47;1.70;;;1.70;;
15629;SDS011;7914;50.842;0.166;2022-10-22T14:57:13;1.70;;;1.70;;
15629;SDS011;7914;50.842;0.166;2022-10-22T14:59:40;1.87;;;1.87;;
15629;SDS011;7914;50.842;0.166;2022-10-22T15:02:09;1.77;;;1.77;;
15629;SDS011;7914;50.842;0.166;2022-10-22T15:04:38;1.60;;;1.60;;
15629;SDS011;7914;50.842;0.166;2022-10-22T15:07:04;1.60;;;1.60;;
15629;SDS011;7914;50.842;0.166;2022-10-22T15:09:30;1.50;;;1.50;;
15629;SDS011;7914;50.842;0.166;2022-10-22T15:11:56;1.53;;;1.53;;
15629;SDS011;7914;50.842;0.166;2022-10-22T15:14:22;1.50;;;1.50;;
15629;SDS011;7914;50.842;0.166;2022-10-22T15:16:48;1.70;;;1.70;;
15629;SDS011;7914;50.842;0.166;2022-10-22T15:19:14;1.63;;;1.63;;
15629;SDS011;7914;50.842;0.166;2022-10-22T15:21:39;1.63;;;1.63;;
15629;SDS011;7914;50.842;0.166;2022-10-22T15:24:05;1.90;;;1.90;;
15629;SDS011;7914;50.842;0.166;2022-10-22T15:26:31;1.70;;;1.70;;
15629;SDS011;7914;50.842;0.166;2022-10-22T15:28:57;1.70;;;1.70;;
15629;SDS011;7914;50.842;0.166;2022-10-22T15:31:42;1.83;;;1.83;;
15629;SDS011;7914;50.842;0.166;2022-10-22T15:36:44;1.83;;;1.83;;
15629;SDS011;7914;50.842;0.166;2022-10-22T15:39:10;1.70;;;1.70;;
15629;SDS011;7914;50.842;0.166;2022-10-22T15:41:36;1.70;;;1.70;;
15629;SDS011;7914;50.842;0.166;2022-10-22T15:44:02;1.70;;;1.70;;
15629;SDS011;7914;50.842;0.166;2022-10-22T15:46:30;1.80;;;1.80;;
15629;SDS011;7914;50.842;0.166;2022-10-22T15:48:57;1.80;;;1.80;;
15629;SDS011;7914;50.842;0.166;2022-10-22T15:51:23;1.70;;;1.70;;
15629;SDS011;7914;50.842;0.166;2022-10-22T15:53:50;1.70;;;1.70;;
15629;SDS011;7914;50.842;0.166;2022-10-22T15:56:16;1.60;;;1.60;;
15629;SDS011;7914;50.842;0.166;2022-10-22T15:58:42;1.70;;;1.70;;
15629;SDS011;7914;50.842;0.166;2022-10-22T16:01:09;2.00;;;1.90;;
15629;SDS011;7914;50.842;0.166;2022-10-22T16:03:36;1.80;;;1.80;;
15629;SDS011;7914;50.842;0.166;2022-10-22T16:06:02;1.70;;;1.70;;
15629;SDS011;7914;50.842;0.166;2022-10-22T16:08:30;2.03;;;1.93;;
15629;SDS011;7914;50.842;0.166;2022-10-22T16:10:55;1.63;;;1.63;;
15629;SDS011;7914;50.842;0.166;2022-10-22T16:13:22;1.73;;;1.73;;
15629;SDS011;7914;50.842;0.166;2022-10-22T16:15:49;1.50;;;1.50;;
15629;SDS011;7914;50.842;0.166;2022-10-22T16:18:15;1.90;;;1.90;;
15629;SDS011;7914;50.842;0.166;2022-10-22T16:20:42;2.10;;;2.00;;
15629;SDS011;7914;50.842;0.166;2022-10-22T16:23:08;2.10;;;2.00;;
15629;SDS011;7914;50.842;0.166;2022-10-22T16:25:37;1.80;;;1.80;;
15629;SDS011;7914;50.842;0.166;2022-10-22T16:28:03;2.13;;;2.03;;
15629;SDS011;7914;50.842;0.166;2022-10-22T16:30:33;1.80;;;1.80;;
15629;SDS011;7914;50.842;0.166;2022-10-22T16:33:00;2.10;;;2.00;;
15629;SDS011;7914;50.842;0.166;2022-10-22T16:35:26;1.90;;;1.90;;
15629;SDS011;7914;50.842;0.166;2022-10-22T16:37:52;1.80;;;1.80;;
15629;SDS011;7914;50.842;0.166;2022-10-22T16:40:18;2.10;;;2.00;;
15629;SDS011;7914;50.842;0.166;2022-10-22T16:42:43;1.80;;;1.80;;
15629;SDS011;7914;50.842;0.166;2022-10-22T16:45:09;2.10;;;2.00;;
15629;SDS011;7914;50.842;0.166;2022-10-22T16:47:35;1.77;;;1.77;;
15629;SDS011;7914;50.842;0.166;2022-10-22T16:50:01;1.87;;;1.87;;
15629;SDS011;7914;50.842;0.166;2022-10-22T16:52:26;1.70;;;1.70;;
15629;SDS011;7914;50.842;0.166;2022-10-22T16:54:52;1.97;;;1.90;;
15629;SDS011;7914;50.842;0.166;2022-10-22T16:57:18;1.90;;;1.87;;
15629;SDS011;7914;50.842;0.166;2022-10-22T16:59:43;2.00;;;1.90;;
15629;SDS011;7914;50.842;0.166;2022-10-22T17:02:10;1.87;;;1.87;;
15629;SDS011;7914;50.842;0.166;2022-10-22T17:04:36;1.70;;;1.70;;